Decoded Metar for KPUC (PRICE in UT, USA) (IATA:PUC) | Meteo·Mobile Aviation Weather
aviador You're here:

KPUC Decoded Metar

PRICE in UT, USA
Report Time2019-01-20 09:53:00
UTC Time2019-01-20 10:35:42
Flight Rules vfr VFR
WindCalm
Visibility9999 m
Phenomena:N/A
Clouds:N/A
Expected CloudBase > 400 ft AGL from Temp-Dew spread
CeilingNone
Temp-9°C (ISA -10)
Dew Point-10°C (93% RH)
AAT-12.1°C
QNH1026 hPa
Density Alt5,207 ft
Elevation6,860 ft
Report Wrong Elevation
Raw Report
KPUC 200953Z AUTO 00000KT 10SM CLR M09/M10 A3031 RMK AO2 SLP319
T10891100=

Extra information for KPUC:More info

Metar Taf Metar & Taf Last 4 Metars F.Rules Stats Wind Profile Meteogram Temp Stats Airport Information Weather charts Add Link Nearby VenuesMetar ALERT Operation Metar Decoded Social comments

AIRNAV info for KPUC